sensor_id;sensor_type;location;lat;lon;timestamp;temperature;humidity
68511;SHT31;55512;50.102;19.958;2023-04-24T00:00:00;15.26;42.50
68511;SHT31;55512;50.102;19.958;2023-04-24T00:02:30;15.21;42.63
68511;SHT31;55512;50.102;19.958;2023-04-24T00:04:57;15.15;42.90
68511;SHT31;55512;50.102;19.958;2023-04-24T00:07:27;15.10;42.97
68511;SHT31;55512;50.102;19.958;2023-04-24T00:09:56;15.05;43.20
68511;SHT31;55512;50.102;19.958;2023-04-24T00:12:21;15.01;43.61
68511;SHT31;55512;50.102;19.958;2023-04-24T00:14:47;14.93;43.91
68511;SHT31;55512;50.102;19.958;2023-04-24T00:17:12;14.88;44.02
68511;SHT31;55512;50.102;19.958;2023-04-24T00:19:38;14.85;44.13
68511;SHT31;55512;50.102;19.958;2023-04-24T00:22:03;14.78;44.24
68511;SHT31;55512;50.102;19.958;2023-04-24T00:24:29;14.74;44.16
68511;SHT31;55512;50.102;19.958;2023-04-24T00:26:54;14.70;44.09
68511;SHT31;55512;50.102;19.958;2023-04-24T00:29:20;14.68;44.09
68511;SHT31;55512;50.102;19.958;2023-04-24T00:31:45;14.65;44.00
68511;SHT31;55512;50.102;19.958;2023-04-24T00:34:11;14.64;44.05
68511;SHT31;55512;50.102;19.958;2023-04-24T00:36:37;14.62;44.17
68511;SHT31;55512;50.102;19.958;2023-04-24T00:39:03;14.58;44.46
68511;SHT31;55512;50.102;19.958;2023-04-24T00:41:28;14.55;44.74
68511;SHT31;55512;50.102;19.958;2023-04-24T00:43:55;14.49;44.98
68511;SHT31;55512;50.102;19.958;2023-04-24T00:46:20;14.43;45.18
68511;SHT31;55512;50.102;19.958;2023-04-24T00:48:46;14.35;45.47
68511;SHT31;55512;50.102;19.958;2023-04-24T00:51:12;14.31;45.50
68511;SHT31;55512;50.102;19.958;2023-04-24T00:53:37;14.25;45.58
68511;SHT31;55512;50.102;19.958;2023-04-24T00:56:03;14.21;45.84
68511;SHT31;55512;50.102;19.958;2023-04-24T00:58:30;14.16;46.07
68511;SHT31;55512;50.102;19.958;2023-04-24T01:00:56;14.11;46.12
68511;SHT31;55512;50.102;19.958;2023-04-24T01:03:24;14.07;46.08
68511;SHT31;55512;50.102;19.958;2023-04-24T01:05:55;14.01;46.30
68511;SHT31;55512;50.102;19.958;2023-04-24T01:08:20;13.97;46.14
68511;SHT31;55512;50.102;19.958;2023-04-24T01:10:49;13.96;46.36
68511;SHT31;55512;50.102;19.958;2023-04-24T01:13:18;13.93;46.44
68511;SHT31;55512;50.102;19.958;2023-04-24T01:15:46;13.90;46.49
68511;SHT31;55512;50.102;19.958;2023-04-24T01:18:12;13.86;46.40
68511;SHT31;55512;50.102;19.958;2023-04-24T01:20:42;13.85;46.30
68511;SHT31;55512;50.102;19.958;2023-04-24T01:23:10;13.82;46.53
68511;SHT31;55512;50.102;19.958;2023-04-24T01:25:36;13.77;46.93
68511;SHT31;55512;50.102;19.958;2023-04-24T01:28:02;13.71;46.97
68511;SHT31;55512;50.102;19.958;2023-04-24T01:30:29;13.66;46.96
68511;SHT31;55512;50.102;19.958;2023-04-24T01:32:56;13.61;47.08
68511;SHT31;55512;50.102;19.958;2023-04-24T01:35:22;13.57;47.34
68511;SHT31;55512;50.102;19.958;2023-04-24T01:37:47;13.48;47.69
68511;SHT31;55512;50.102;19.958;2023-04-24T01:40:12;13.44;47.83
68511;SHT31;55512;50.102;19.958;2023-04-24T01:42:38;13.37;48.16
68511;SHT31;55512;50.102;19.958;2023-04-24T01:45:07;13.23;48.46
68511;SHT31;55512;50.102;19.958;2023-04-24T01:47:37;13.16;48.53
68511;SHT31;55512;50.102;19.958;2023-04-24T01:50:04;13.11;48.73
68511;SHT31;55512;50.102;19.958;2023-04-24T01:52:31;13.10;48.76
68511;SHT31;55512;50.102;19.958;2023-04-24T01:55:02;13.12;48.67
68511;SHT31;55512;50.102;19.958;2023-04-24T01:57:29;13.11;48.62
68511;SHT31;55512;50.102;19.958;2023-04-24T01:59:58;13.11;48.72
68511;SHT31;55512;50.102;19.958;2023-04-24T02:02:24;13.09;48.75
68511;SHT31;55512;50.102;19.958;2023-04-24T02:04:52;13.07;48.75
68511;SHT31;55512;50.102;19.958;2023-04-24T02:07:19;13.07;48.97
68511;SHT31;55512;50.102;19.958;2023-04-24T02:09:45;13.05;48.92
68511;SHT31;55512;50.102;19.958;2023-04-24T02:12:10;13.06;48.78
68511;SHT31;55512;50.102;19.958;2023-04-24T02:14:35;13.06;48.80
68511;SHT31;55512;50.102;19.958;2023-04-24T02:17:01;13.04;49.12
68511;SHT31;55512;50.102;19.958;2023-04-24T02:19:26;13.02;49.24
68511;SHT31;55512;50.102;19.958;2023-04-24T02:21:52;13.00;49.19
68511;SHT31;55512;50.102;19.958;2023-04-24T02:24:17;13.00;49.37
68511;SHT31;55512;50.102;19.958;2023-04-24T02:26:43;12.94;49.72
68511;SHT31;55512;50.102;19.958;2023-04-24T02:29:08;12.89;49.70
68511;SHT31;55512;50.102;19.958;2023-04-24T02:31:34;12.88;49.70
68511;SHT31;55512;50.102;19.958;2023-04-24T02:33:59;12.87;49.68
68511;SHT31;55512;50.102;19.958;2023-04-24T02:36:25;12.83;49.67
68511;SHT31;55512;50.102;19.958;2023-04-24T02:38:50;12.81;49.70
68511;SHT31;55512;50.102;19.958;2023-04-24T02:41:15;12.79;49.99
68511;SHT31;55512;50.102;19.958;2023-04-24T02:43:41;12.75;50.04
68511;SHT31;55512;50.102;19.958;2023-04-24T02:46:06;12.71;49.95
68511;SHT31;55512;50.102;19.958;2023-04-24T02:48:32;12.67;50.06
68511;SHT31;55512;50.102;19.958;2023-04-24T02:50:57;12.65;49.70
68511;SHT31;55512;50.102;19.958;2023-04-24T02:53:23;12.66;49.44
68511;SHT31;55512;50.102;19.958;2023-04-24T02:55:48;12.66;49.39
68511;SHT31;55512;50.102;19.958;2023-04-24T02:58:14;12.65;49.29
68511;SHT31;55512;50.102;19.958;2023-04-24T03:00:40;12.64;49.35
68511;SHT31;55512;50.102;19.958;2023-04-24T03:03:05;12.63;49.37
68511;SHT31;55512;50.102;19.958;2023-04-24T03:05:31;12.60;49.50
68511;SHT31;55512;50.102;19.958;2023-04-24T03:07:57;12.57;49.26
68511;SHT31;55512;50.102;19.958;2023-04-24T03:10:22;12.58;49.02
68511;SHT31;55512;50.102;19.958;2023-04-24T03:12:48;12.58;49.04
68511;SHT31;55512;50.102;19.958;2023-04-24T03:15:14;12.56;49.14
68511;SHT31;55512;50.102;19.958;2023-04-24T03:17:40;12.56;49.05
68511;SHT31;55512;50.102;19.958;2023-04-24T03:20:06;12.56;49.13
68511;SHT31;55512;50.102;19.958;2023-04-24T03:22:33;12.53;49.32
68511;SHT31;55512;50.102;19.958;2023-04-24T03:24:59;12.51;49.23
68511;SHT31;55512;50.102;19.958;2023-04-24T03:27:25;12.50;49.24
68511;SHT31;55512;50.102;19.958;2023-04-24T03:29:51;12.50;49.34
68511;SHT31;55512;50.102;19.958;2023-04-24T03:32:20;12.48;49.47
68511;SHT31;55512;50.102;19.958;2023-04-24T03:34:48;12.44;49.60
68511;SHT31;55512;50.102;19.958;2023-04-24T03:37:15;12.43;49.46
68511;SHT31;55512;50.102;19.958;2023-04-24T03:39:42;12.43;49.36
68511;SHT31;55512;50.102;19.958;2023-04-24T03:42:08;12.43;49.41
68511;SHT31;55512;50.102;19.958;2023-04-24T03:44:33;12.42;49.36
68511;SHT31;55512;50.102;19.958;2023-04-24T03:47:00;12.43;49.25
68511;SHT31;55512;50.102;19.958;2023-04-24T03:49:26;12.46;49.17
68511;SHT31;55512;50.102;19.958;2023-04-24T03:51:51;12.48;49.08
68511;SHT31;55512;50.102;19.958;2023-04-24T03:54:17;12.49;49.37
68511;SHT31;55512;50.102;19.958;2023-04-24T03:56:46;12.49;49.67
68511;SHT31;55512;50.102;19.958;2023-04-24T03:59:11;12.48;49.97
68511;SHT31;55512;50.102;19.958;2023-04-24T04:01:38;12.47;49.94
68511;SHT31;55512;50.102;19.958;2023-04-24T04:04:04;12.47;50.05
68511;SHT31;55512;50.102;19.958;2023-04-24T04:06:30;12.47;50.19
68511;SHT31;55512;50.102;19.958;2023-04-24T04:08:56;12.47;50.21
68511;SHT31;55512;50.102;19.958;2023-04-24T04:11:23;12.49;50.23
68511;SHT31;55512;50.102;19.958;2023-04-24T04:13:48;12.50;50.19
68511;SHT31;55512;50.102;19.958;2023-04-24T04:16:14;12.52;50.04
68511;SHT31;55512;50.102;19.958;2023-04-24T04:18:41;12.53;49.99
68511;SHT31;55512;50.102;19.958;2023-04-24T04:21:07;12.55;49.93
68511;SHT31;55512;50.102;19.958;2023-04-24T04:23:33;12.60;49.81
68511;SHT31;55512;50.102;19.958;2023-04-24T04:25:58;12.63;49.68
68511;SHT31;55512;50.102;19.958;2023-04-24T04:28:24;12.67;49.57
68511;SHT31;55512;50.102;19.958;2023-04-24T04:30:51;12.73;49.49
68511;SHT31;55512;50.102;19.958;2023-04-24T04:33:20;12.78;49.40
68511;SHT31;55512;50.102;19.958;2023-04-24T04:35:47;12.82;49.34
68511;SHT31;55512;50.102;19.958;2023-04-24T04:38:17;12.87;49.35
68511;SHT31;55512;50.102;19.958;2023-04-24T04:40:44;12.91;49.28
68511;SHT31;55512;50.102;19.958;2023-04-24T04:43:10;12.95;49.23
68511;SHT31;55512;50.102;19.958;2023-04-24T04:45:38;13.02;49.13
68511;SHT31;55512;50.102;19.958;2023-04-24T04:48:06;13.09;48.98
68511;SHT31;55512;50.102;19.958;2023-04-24T04:50:37;13.13;48.90
68511;SHT31;55512;50.102;19.958;2023-04-24T04:53:03;13.19;48.77
68511;SHT31;55512;50.102;19.958;2023-04-24T04:55:30;13.26;48.66
68511;SHT31;55512;50.102;19.958;2023-04-24T04:57:55;13.32;48.57
68511;SHT31;55512;50.102;19.958;2023-04-24T05:00:21;13.38;48.42
68511;SHT31;55512;50.102;19.958;2023-04-24T05:02:50;13.45;48.34
68511;SHT31;55512;50.102;19.958;2023-04-24T05:05:16;13.53;48.25
68511;SHT31;55512;50.102;19.958;2023-04-24T05:07:42;13.60;48.20
68511;SHT31;55512;50.102;19.958;2023-04-24T05:10:09;13.66;48.12
68511;SHT31;55512;50.102;19.958;2023-04-24T05:12:35;13.73;48.03
68511;SHT31;55512;50.102;19.958;2023-04-24T05:15:01;13.81;47.85
68511;SHT31;55512;50.102;19.958;2023-04-24T05:17:26;13.88;47.73
68511;SHT31;55512;50.102;19.958;2023-04-24T05:19:52;13.95;47.64
68511;SHT31;55512;50.102;19.958;2023-04-24T05:22:17;14.01;47.50
68511;SHT31;55512;50.102;19.958;2023-04-24T05:24:45;14.09;47.37
68511;SHT31;55512;50.102;19.958;2023-04-24T05:27:11;14.17;47.23
68511;SHT31;55512;50.102;19.958;2023-04-24T05:29:36;14.25;47.25
68511;SHT31;55512;50.102;19.958;2023-04-24T05:32:02;14.34;47.27
68511;SHT31;55512;50.102;19.958;2023-04-24T05:34:27;14.42;47.20
68511;SHT31;55512;50.102;19.958;2023-04-24T05:36:53;14.50;47.02
68511;SHT31;55512;50.102;19.958;2023-04-24T05:39:18;14.59;46.72
68511;SHT31;55512;50.102;19.958;2023-04-24T05:41:44;14.67;46.44
68511;SHT31;55512;50.102;19.958;2023-04-24T05:44:10;14.75;46.21
68511;SHT31;55512;50.102;19.958;2023-04-24T05:46:36;14.83;46.12
68511;SHT31;55512;50.102;19.958;2023-04-24T05:49:01;14.92;45.98
68511;SHT31;55512;50.102;19.958;2023-04-24T05:51:27;15.00;45.87
68511;SHT31;55512;50.102;19.958;2023-04-24T05:53:54;15.08;45.77
68511;SHT31;55512;50.102;19.958;2023-04-24T05:56:19;15.17;45.65
68511;SHT31;55512;50.102;19.958;2023-04-24T05:58:45;15.25;45.44
68511;SHT31;55512;50.102;19.958;2023-04-24T06:01:12;15.33;45.33
68511;SHT31;55512;50.102;19.958;2023-04-24T06:03:39;15.41;45.13
68511;SHT31;55512;50.102;19.958;2023-04-24T06:06:06;15.50;44.95
68511;SHT31;55512;50.102;19.958;2023-04-24T06:08:33;15.59;44.35
68511;SHT31;55512;50.102;19.958;2023-04-24T06:10:59;15.68;44.08
68511;SHT31;55512;50.102;19.958;2023-04-24T06:13:25;15.76;44.47
68511;SHT31;55512;50.102;19.958;2023-04-24T06:15:50;15.85;44.43
68511;SHT31;55512;50.102;19.958;2023-04-24T06:18:16;15.94;44.30
68511;SHT31;55512;50.102;19.958;2023-04-24T06:20:42;16.03;44.19
68511;SHT31;55512;50.102;19.958;2023-04-24T06:23:07;16.11;44.05
68511;SHT31;55512;50.102;19.958;2023-04-24T06:25:33;16.19;43.88
68511;SHT31;55512;50.102;19.958;2023-04-24T06:27:58;16.26;43.78
68511;SHT31;55512;50.102;19.958;2023-04-24T06:30:24;16.34;43.62
68511;SHT31;55512;50.102;19.958;2023-04-24T06:32:50;16.42;43.46
68511;SHT31;55512;50.102;19.958;2023-04-24T06:35:16;16.49;43.33
68511;SHT31;55512;50.102;19.958;2023-04-24T06:37:42;16.57;43.31
68511;SHT31;55512;50.102;19.958;2023-04-24T06:40:08;16.64;43.27
68511;SHT31;55512;50.102;19.958;2023-04-24T06:42:34;16.73;43.41
68511;SHT31;55512;50.102;19.958;2023-04-24T06:45:00;16.79;43.09
68511;SHT31;55512;50.102;19.958;2023-04-24T06:47:26;16.86;42.77
68511;SHT31;55512;50.102;19.958;2023-04-24T06:49:51;16.95;42.57
68511;SHT31;55512;50.102;19.958;2023-04-24T06:52:17;17.04;42.31
68511;SHT31;55512;50.102;19.958;2023-04-24T06:54:43;17.11;42.00
68511;SHT31;55512;50.102;19.958;2023-04-24T06:57:09;17.19;41.70
68511;SHT31;55512;50.102;19.958;2023-04-24T06:59:35;17.27;41.10
68511;SHT31;55512;50.102;19.958;2023-04-24T07:02:01;17.35;41.45
68511;SHT31;55512;50.102;19.958;2023-04-24T07:04:27;17.43;41.70
68511;SHT31;55512;50.102;19.958;2023-04-24T07:06:54;17.50;41.60
68511;SHT31;55512;50.102;19.958;2023-04-24T07:09:21;17.59;40.61
68511;SHT31;55512;50.102;19.958;2023-04-24T07:11:49;17.68;39.85
68511;SHT31;55512;50.102;19.958;2023-04-24T07:14:15;17.77;39.64
68511;SHT31;55512;50.102;19.958;2023-04-24T07:16:41;17.85;39.22
68511;SHT31;55512;50.102;19.958;2023-04-24T07:19:07;17.94;38.67
68511;SHT31;55512;50.102;19.958;2023-04-24T07:21:32;18.04;38.33
68511;SHT31;55512;50.102;19.958;2023-04-24T07:23:58;18.13;38.04
68511;SHT31;55512;50.102;19.958;2023-04-24T07:26:25;18.22;37.62
68511;SHT31;55512;50.102;19.958;2023-04-24T07:28:53;18.32;37.21
68511;SHT31;55512;50.102;19.958;2023-04-24T07:31:18;18.41;37.03
68511;SHT31;55512;50.102;19.958;2023-04-24T07:33:44;18.51;36.94
68511;SHT31;55512;50.102;19.958;2023-04-24T07:36:09;18.61;36.88
68511;SHT31;55512;50.102;19.958;2023-04-24T07:38:40;18.70;36.74
68511;SHT31;55512;50.102;19.958;2023-04-24T07:41:08;18.80;36.56
68511;SHT31;55512;50.102;19.958;2023-04-24T07:43:34;18.90;36.68
68511;SHT31;55512;50.102;19.958;2023-04-24T07:46:00;19.01;36.57
68511;SHT31;55512;50.102;19.958;2023-04-24T07:48:26;19.12;36.54
68511;SHT31;55512;50.102;19.958;2023-04-24T07:50:52;19.23;36.35
68511;SHT31;55512;50.102;19.958;2023-04-24T07:53:18;19.34;36.16
68511;SHT31;55512;50.102;19.958;2023-04-24T07:55:43;19.44;36.16
68511;SHT31;55512;50.102;19.958;2023-04-24T07:58:09;19.54;35.90
68511;SHT31;55512;50.102;19.958;2023-04-24T08:00:34;19.64;35.39
68511;SHT31;55512;50.102;19.958;2023-04-24T08:03:00;19.75;34.98
68511;SHT31;55512;50.102;19.958;2023-04-24T08:05:26;19.84;34.93
68511;SHT31;55512;50.102;19.958;2023-04-24T08:07:53;19.95;34.50
68511;SHT31;55512;50.102;19.958;2023-04-24T08:10:20;20.05;33.95
68511;SHT31;55512;50.102;19.958;2023-04-24T08:12:48;20.13;34.04
68511;SHT31;55512;50.102;19.958;2023-04-24T08:15:13;20.23;34.28
68511;SHT31;55512;50.102;19.958;2023-04-24T08:17:39;20.34;34.40
68511;SHT31;55512;50.102;19.958;2023-04-24T08:20:05;20.46;34.45
68511;SHT31;55512;50.102;19.958;2023-04-24T08:22:36;20.55;34.16
68511;SHT31;55512;50.102;19.958;2023-04-24T08:25:02;20.64;33.97
68511;SHT31;55512;50.102;19.958;2023-04-24T08:27:28;20.73;33.33
68511;SHT31;55512;50.102;19.958;2023-04-24T08:29:54;20.81;32.93
68511;SHT31;55512;50.102;19.958;2023-04-24T08:32:19;20.93;32.57
68511;SHT31;55512;50.102;19.958;2023-04-24T08:34:47;21.02;32.14
68511;SHT31;55512;50.102;19.958;2023-04-24T08:37:13;21.14;31.78
68511;SHT31;55512;50.102;19.958;2023-04-24T08:39:38;21.24;31.24
68511;SHT31;55512;50.102;19.958;2023-04-24T08:42:04;21.32;30.97
68511;SHT31;55512;50.102;19.958;2023-04-24T08:44:33;21.43;31.03
68511;SHT31;55512;50.102;19.958;2023-04-24T08:47:03;21.54;30.90
68511;SHT31;55512;50.102;19.958;2023-04-24T08:49:30;21.64;30.49
68511;SHT31;55512;50.102;19.958;2023-04-24T08:51:56;21.72;30.57
68511;SHT31;55512;50.102;19.958;2023-04-24T08:54:22;21.80;30.64
68511;SHT31;55512;50.102;19.958;2023-04-24T08:56:49;21.86;30.54
68511;SHT31;55512;50.102;19.958;2023-04-24T08:59:18;21.93;30.36
68511;SHT31;55512;50.102;19.958;2023-04-24T09:01:47;22.01;29.72
68511;SHT31;55512;50.102;19.958;2023-04-24T09:04:14;22.09;29.23
68511;SHT31;55512;50.102;19.958;2023-04-24T09:06:42;22.15;28.95
68511;SHT31;55512;50.102;19.958;2023-04-24T09:09:09;22.19;28.67
68511;SHT31;55512;50.102;19.958;2023-04-24T09:11:36;22.23;28.53
68511;SHT31;55512;50.102;19.958;2023-04-24T09:14:02;22.27;28.53
68511;SHT31;55512;50.102;19.958;2023-04-24T09:16:29;22.33;28.24
68511;SHT31;55512;50.102;19.958;2023-04-24T09:18:58;22.39;28.10
68511;SHT31;55512;50.102;19.958;2023-04-24T09:21:23;22.46;28.12
68511;SHT31;55512;50.102;19.958;2023-04-24T09:23:59;22.52;28.08
68511;SHT31;55512;50.102;19.958;2023-04-24T09:26:29;22.58;27.83
68511;SHT31;55512;50.102;19.958;2023-04-24T09:28:59;22.65;27.83
68511;SHT31;55512;50.102;19.958;2023-04-24T09:31:27;22.72;27.68
68511;SHT31;55512;50.102;19.958;2023-04-24T09:34:02;22.80;27.32
68511;SHT31;55512;50.102;19.958;2023-04-24T09:36:33;22.85;26.99
68511;SHT31;55512;50.102;19.958;2023-04-24T09:39:07;22.85;26.88
68511;SHT31;55512;50.102;19.958;2023-04-24T09:41:44;22.86;26.85
68511;SHT31;55512;50.102;19.958;2023-04-24T09:44:18;22.92;27.07
68511;SHT31;55512;50.102;19.958;2023-04-24T09:46:56;23.03;26.93
68511;SHT31;55512;50.102;19.958;2023-04-24T09:49:25;23.14;26.66
68511;SHT31;55512;50.102;19.958;2023-04-24T09:51:53;23.21;26.58
68511;SHT31;55512;50.102;19.958;2023-04-24T09:54:29;23.29;26.72
68511;SHT31;55512;50.102;19.958;2023-04-24T09:56:55;23.39;26.85
68511;SHT31;55512;50.102;19.958;2023-04-24T09:59:22;23.50;26.56
68511;SHT31;55512;50.102;19.958;2023-04-24T10:01:48;23.53;25.54
68511;SHT31;55512;50.102;19.958;2023-04-24T10:04:19;23.43;25.15
68511;SHT31;55512;50.102;19.958;2023-04-24T10:06:49;23.41;25.50
68511;SHT31;55512;50.102;19.958;2023-04-24T10:09:18;23.47;25.68
68511;SHT31;55512;50.102;19.958;2023-04-24T10:11:47;23.58;25.62
68511;SHT31;55512;50.102;19.958;2023-04-24T10:14:17;23.69;25.62
68511;SHT31;55512;50.102;19.958;2023-04-24T10:16:49;23.79;25.63
68511;SHT31;55512;50.102;19.958;2023-04-24T10:19:17;23.91;25.59
68511;SHT31;55512;50.102;19.958;2023-04-24T10:21:45;24.01;25.27
68511;SHT31;55512;50.102;19.958;2023-04-24T10:24:15;24.09;25.38
68511;SHT31;55512;50.102;19.958;2023-04-24T10:26:44;24.21;25.35
68511;SHT31;55512;50.102;19.958;2023-04-24T10:29:13;24.33;25.16
68511;SHT31;55512;50.102;19.958;2023-04-24T10:31:41;24.42;24.99
68511;SHT31;55512;50.102;19.958;2023-04-24T10:34:10;24.52;24.37
68511;SHT31;55512;50.102;19.958;2023-04-24T10:36:38;24.60;24.27
68511;SHT31;55512;50.102;19.958;2023-04-24T10:39:10;24.66;23.71
68511;SHT31;55512;50.102;19.958;2023-04-24T10:41:42;24.71;22.83
68511;SHT31;55512;50.102;19.958;2023-04-24T10:44:08;24.74;22.41
68511;SHT31;55512;50.102;19.958;2023-04-24T10:46:43;24.77;22.39
68511;SHT31;55512;50.102;19.958;2023-04-24T10:49:12;24.83;22.50
68511;SHT31;55512;50.102;19.958;2023-04-24T10:51:44;24.90;22.42
68511;SHT31;55512;50.102;19.958;2023-04-24T10:54:23;24.95;22.28
68511;SHT31;55512;50.102;19.958;2023-04-24T10:56:50;24.96;22.24
68511;SHT31;55512;50.102;19.958;2023-04-24T10:59:26;24.97;22.31
68511;SHT31;55512;50.102;19.958;2023-04-24T11:01:59;25.02;22.22
68511;SHT31;55512;50.102;19.958;2023-04-24T11:04:31;25.05;22.06
68511;SHT31;55512;50.102;19.958;2023-04-24T11:06:58;25.10;21.85
68511;SHT31;55512;50.102;19.958;2023-04-24T11:09:26;25.15;22.03
68511;SHT31;55512;50.102;19.958;2023-04-24T11:20:05;25.24;21.71
68511;SHT31;55512;50.102;19.958;2023-04-24T11:22:38;25.26;22.01
68511;SHT31;55512;50.102;19.958;2023-04-24T11:25:08;25.29;22.00
68511;SHT31;55512;50.102;19.958;2023-04-24T11:27:43;25.32;21.99
68511;SHT31;55512;50.102;19.958;2023-04-24T11:30:16;25.37;21.80
68511;SHT31;55512;50.102;19.958;2023-04-24T11:32:47;25.41;21.99
68511;SHT31;55512;50.102;19.958;2023-04-24T11:35:16;25.51;21.90
68511;SHT31;55512;50.102;19.958;2023-04-24T11:37:47;25.55;22.17
68511;SHT31;55512;50.102;19.958;2023-04-24T11:40:14;25.60;22.34
68511;SHT31;55512;50.102;19.958;2023-04-24T11:42:46;25.68;22.31
68511;SHT31;55512;50.102;19.958;2023-04-24T11:45:16;25.75;22.07
68511;SHT31;55512;50.102;19.958;2023-04-24T11:47:51;25.81;22.08
68511;SHT31;55512;50.102;19.958;2023-04-24T11:50:17;25.84;22.28
68511;SHT31;55512;50.102;19.958;2023-04-24T11:52:45;25.88;22.30
68511;SHT31;55512;50.102;19.958;2023-04-24T11:57:39;26.04;22.36
68511;SHT31;55512;50.102;19.958;2023-04-24T12:00:09;26.14;22.28
68511;SHT31;55512;50.102;19.958;2023-04-24T12:02:43;26.24;22.12
68511;SHT31;55512;50.102;19.958;2023-04-24T12:05:18;26.34;21.91
68511;SHT31;55512;50.102;19.958;2023-04-24T12:07:51;26.46;21.76
68511;SHT31;55512;50.102;19.958;2023-04-24T12:10:21;26.55;21.59
68511;SHT31;55512;50.102;19.958;2023-04-24T12:12:48;26.58;21.25
68511;SHT31;55512;50.102;19.958;2023-04-24T12:15:16;26.59;21.48
68511;SHT31;55512;50.102;19.958;2023-04-24T12:17:44;26.67;21.30
68511;SHT31;55512;50.102;19.958;2023-04-24T12:20:10;26.65;21.06
68511;SHT31;55512;50.102;19.958;2023-04-24T12:25:15;26.59;21.34
68511;SHT31;55512;50.102;19.958;2023-04-24T12:27:43;26.68;21.22
68511;SHT31;55512;50.102;19.958;2023-04-24T12:30:11;26.73;21.07
68511;SHT31;55512;50.102;19.958;2023-04-24T12:32:43;26.71;21.36
68511;SHT31;55512;50.102;19.958;2023-04-24T12:35:13;26.67;21.68
68511;SHT31;55512;50.102;19.958;2023-04-24T12:37:45;26.65;21.84
68511;SHT31;55512;50.102;19.958;2023-04-24T12:40:11;26.61;21.96
68511;SHT31;55512;50.102;19.958;2023-04-24T12:42:42;26.60;22.00
68511;SHT31;55512;50.102;19.958;2023-04-24T12:45:14;26.58;22.11
68511;SHT31;55512;50.102;19.958;2023-04-24T12:47:42;26.53;22.17
68511;SHT31;55512;50.102;19.958;2023-04-24T12:50:11;26.45;22.14
68511;SHT31;55512;50.102;19.958;2023-04-24T12:52:40;26.41;22.54
68511;SHT31;55512;50.102;19.958;2023-04-24T12:55:06;26.25;24.41
68511;SHT31;55512;50.102;19.958;2023-04-24T12:57:34;26.00;25.63
68511;SHT31;55512;50.102;19.958;2023-04-24T13:00:02;25.64;26.41
68511;SHT31;55512;50.102;19.958;2023-04-24T13:02:30;25.34;26.99
68511;SHT31;55512;50.102;19.958;2023-04-24T13:04:56;25.03;27.52
68511;SHT31;55512;50.102;19.958;2023-04-24T13:07:23;24.67;28.03
68511;SHT31;55512;50.102;19.958;2023-04-24T13:09:50;24.35;28.51
68511;SHT31;55512;50.102;19.958;2023-04-24T13:12:16;24.08;29.01
68511;SHT31;55512;50.102;19.958;2023-04-24T13:14:43;23.85;29.47
68511;SHT31;55512;50.102;19.958;2023-04-24T13:17:09;23.59;30.17
68511;SHT31;55512;50.102;19.958;2023-04-24T13:19:36;23.38;30.53
68511;SHT31;55512;50.102;19.958;2023-04-24T13:22:03;23.17;30.95
68511;SHT31;55512;50.102;19.958;2023-04-24T13:24:29;22.91;31.65
68511;SHT31;55512;50.102;19.958;2023-04-24T13:26:56;22.66;32.21
68511;SHT31;55512;50.102;19.958;2023-04-24T13:29:22;22.44;32.80
68511;SHT31;55512;50.102;19.958;2023-04-24T13:31:52;22.26;33.08
68511;SHT31;55512;50.102;19.958;2023-04-24T13:34:25;22.18;33.29
68511;SHT31;55512;50.102;19.958;2023-04-24T13:36:52;22.10;33.64
68511;SHT31;55512;50.102;19.958;2023-04-24T13:39:19;21.97;33.88
68511;SHT31;55512;50.102;19.958;2023-04-24T13:41:45;21.84;33.96
68511;SHT31;55512;50.102;19.958;2023-04-24T13:44:13;21.71;33.98
68511;SHT31;55512;50.102;19.958;2023-04-24T13:46:40;21.60;34.17
68511;SHT31;55512;50.102;19.958;2023-04-24T13:49:06;21.45;34.16
68511;SHT31;55512;50.102;19.958;2023-04-24T13:51:31;21.36;34.15
68511;SHT31;55512;50.102;19.958;2023-04-24T13:53:57;21.30;34.19
68511;SHT31;55512;50.102;19.958;2023-04-24T13:56:24;21.21;34.22
68511;SHT31;55512;50.102;19.958;2023-04-24T13:58:50;21.17;34.38
68511;SHT31;55512;50.102;19.958;2023-04-24T14:01:16;21.09;34.70
68511;SHT31;55512;50.102;19.958;2023-04-24T14:03:42;21.01;34.87
68511;SHT31;55512;50.102;19.958;2023-04-24T14:06:10;20.95;35.05
68511;SHT31;55512;50.102;19.958;2023-04-24T14:08:36;20.89;35.18
68511;SHT31;55512;50.102;19.958;2023-04-24T14:11:02;20.82;35.44
68511;SHT31;55512;50.102;19.958;2023-04-24T14:13:27;20.75;35.39
68511;SHT31;55512;50.102;19.958;2023-04-24T14:15:53;20.67;35.63
68511;SHT31;55512;50.102;19.958;2023-04-24T14:18:19;20.58;35.77
68511;SHT31;55512;50.102;19.958;2023-04-24T14:20:45;20.50;35.88
68511;SHT31;55512;50.102;19.958;2023-04-24T14:23:11;20.44;36.08
68511;SHT31;55512;50.102;19.958;2023-04-24T14:25:36;20.34;36.20
68511;SHT31;55512;50.102;19.958;2023-04-24T14:28:02;20.29;36.33
68511;SHT31;55512;50.102;19.958;2023-04-24T14:30:27;20.27;36.57
68511;SHT31;55512;50.102;19.958;2023-04-24T14:32:53;20.23;36.90
68511;SHT31;55512;50.102;19.958;2023-04-24T14:35:19;20.16;37.14
68511;SHT31;55512;50.102;19.958;2023-04-24T14:37:44;20.10;37.32
68511;SHT31;55512;50.102;19.958;2023-04-24T14:40:10;20.08;37.32
68511;SHT31;55512;50.102;19.958;2023-04-24T14:42:36;20.06;37.34
68511;SHT31;55512;50.102;19.958;2023-04-24T14:45:01;20.03;37.50
68511;SHT31;55512;50.102;19.958;2023-04-24T14:47:27;20.01;37.54
68511;SHT31;55512;50.102;19.958;2023-04-24T14:49:54;20.01;37.52
68511;SHT31;55512;50.102;19.958;2023-04-24T14:52:20;20.04;37.57
68511;SHT31;55512;50.102;19.958;2023-04-24T14:54:45;20.03;37.70
68511;SHT31;55512;50.102;19.958;2023-04-24T14:57:11;20.02;37.73
68511;SHT31;55512;50.102;19.958;2023-04-24T14:59:36;20.04;37.77
68511;SHT31;55512;50.102;19.958;2023-04-24T15:02:02;20.03;37.80
68511;SHT31;55512;50.102;19.958;2023-04-24T15:04:27;20.07;37.84
68511;SHT31;55512;50.102;19.958;2023-04-24T15:06:54;20.09;37.94
68511;SHT31;55512;50.102;19.958;2023-04-24T15:09:20;20.15;37.97
68511;SHT31;55512;50.102;19.958;2023-04-24T15:11:48;20.21;37.85
68511;SHT31;55512;50.102;19.958;2023-04-24T15:14:14;20.28;37.71
68511;SHT31;55512;50.102;19.958;2023-04-24T15:16:41;20.35;37.59
68511;SHT31;55512;50.102;19.958;2023-04-24T15:19:07;20.44;37.42
68511;SHT31;55512;50.102;19.958;2023-04-24T15:21:32;20.52;37.37
68511;SHT31;55512;50.102;19.958;2023-04-24T15:23:58;20.57;37.26
68511;SHT31;55512;50.102;19.958;2023-04-24T15:26:24;20.61;37.12